createdAt,value
2019-05-13T00:00:08.917Z,82.7
2019-05-13T00:01:10.493Z,82.3
2019-05-13T00:02:13.806Z,82.1
2019-05-13T00:03:15.394Z,82.5
2019-05-13T00:04:17.259Z,82.6
2019-05-13T00:05:19.134Z,82.7
2019-05-13T00:06:20.998Z,82.9
2019-05-13T00:07:25.225Z,82.7
2019-05-13T00:08:27.087Z,82.8
2019-05-13T00:09:28.951Z,82.9
2019-05-13T00:10:30.815Z,83.4
2019-05-13T00:11:35.050Z,83.8
2019-05-13T00:12:36.917Z,83.9
2019-05-13T00:13:38.778Z,84
2019-05-13T00:14:40.641Z,84.5
2019-05-13T00:15:45.045Z,84.6
2019-05-13T00:16:46.924Z,84.6
2019-05-13T00:17:48.789Z,84.6
2019-05-13T00:18:50.377Z,84.8
2019-05-13T00:19:54.813Z,85.2
2019-05-13T00:20:56.680Z,85.5
2019-05-13T00:21:57.995Z,85.8
2019-05-13T00:22:59.859Z,86
2019-05-13T00:24:04.520Z,86.1
2019-05-13T00:25:06.394Z,86.3
2019-05-13T00:26:08.282Z,86.6
2019-05-13T00:27:10.146Z,86.2
2019-05-13T00:28:14.180Z,86.3
2019-05-13T00:29:16.185Z,86.3
2019-05-13T00:30:18.051Z,86.5
2019-05-13T00:31:19.923Z,86.5
2019-05-13T00:32:23.596Z,86.3
2019-05-13T00:33:25.544Z,86.2
2019-05-13T00:34:27.416Z,86.3
2019-05-13T00:35:29.286Z,86.2
2019-05-13T00:36:33.183Z,86.4
2019-05-13T00:37:35.618Z,86.7
2019-05-13T00:38:37.484Z,86.8
2019-05-13T00:39:39.346Z,86.7
2019-05-13T00:40:41.211Z,86.5
2019-05-13T00:41:45.622Z,86.5
2019-05-13T00:42:47.488Z,87
2019-05-13T00:43:49.352Z,86.6
2019-05-13T00:44:52.907Z,87
2019-05-13T00:45:54.786Z,86.1
2019-05-13T00:46:56.662Z,86.5
2019-05-13T00:47:58.533Z,87.2
2019-05-13T00:49:00.396Z,87.3
2019-05-13T00:50:04.169Z,87.3
2019-05-13T00:51:06.041Z,87.2
2019-05-13T00:52:07.903Z,86.5
2019-05-13T00:53:09.765Z,87.5
2019-05-13T00:54:13.712Z,87.4
2019-05-13T00:55:15.586Z,87.5
2019-05-13T00:56:17.444Z,87.8
2019-05-13T00:57:19.310Z,87.9
2019-05-13T00:58:21.190Z,88
2019-05-13T00:59:25.443Z,88.1
2019-05-13T01:00:27.311Z,87.8
2019-05-13T01:01:29.174Z,87.4
2019-05-13T01:02:31.042Z,87.6
2019-05-13T01:03:35.149Z,88.2
2019-05-13T01:04:37.016Z,88.5
2019-05-13T01:05:38.886Z,89
2019-05-13T01:06:43.343Z,89.6
2019-05-13T01:07:45.407Z,90.1
2019-05-13T01:08:47.275Z,90.1
2019-05-13T01:09:49.150Z,90.3
2019-05-13T01:10:51.009Z,90.2
2019-05-13T01:11:55.022Z,90.4
2019-05-13T01:12:56.899Z,90.5
2019-05-13T01:13:58.763Z,90.6
2019-05-13T01:15:00.629Z,90.5
2019-05-13T01:16:04.657Z,90.5
2019-05-13T01:17:06.521Z,90.6
2019-05-13T01:18:08.111Z,90.4
2019-05-13T01:19:09.984Z,90.4
2019-05-13T01:20:11.575Z,90.5
2019-05-13T01:21:15.726Z,90.4
2019-05-13T01:22:17.318Z,90.4
2019-05-13T01:23:18.904Z,90.5
2019-05-13T01:24:20.771Z,90.5
2019-05-13T01:25:24.806Z,90.5
2019-05-13T01:26:26.679Z,90.5
2019-05-13T01:27:28.546Z,90.6
2019-05-13T01:28:30.412Z,90.7
2019-05-13T01:29:34.126Z,90.4
2019-05-13T01:30:36.191Z,90.3
2019-05-13T01:31:38.058Z,90.3
2019-05-13T01:32:39.921Z,90.3
2019-05-13T01:33:44.299Z,90.2
2019-05-13T01:34:46.294Z,90.4
2019-05-13T01:35:47.883Z,90.8
2019-05-13T01:36:49.472Z,90.9
2019-05-13T01:37:53.657Z,90.8
2019-05-13T01:38:55.317Z,90.8
2019-05-13T01:39:57.183Z,90.8
2019-05-13T01:40:58.779Z,90.7
2019-05-13T01:42:00.352Z,90.5
2019-05-13T01:43:04.917Z,90.7
2019-05-13T01:44:06.798Z,90.6
2019-05-13T01:45:08.107Z,90.4
2019-05-13T01:46:09.973Z,90.7
2019-05-13T01:47:14.343Z,90.8
2019-05-13T01:48:15.640Z,90.6
2019-05-13T01:49:19.194Z,90.5
2019-05-13T01:50:21.066Z,90.3
2019-05-13T01:51:24.989Z,90.3
2019-05-13T01:52:26.866Z,90.4
2019-05-13T01:53:28.732Z,90.2
2019-05-13T01:54:30.319Z,90.4
2019-05-13T01:55:34.895Z,90.4
2019-05-13T01:56:36.766Z,90.8
2019-05-13T01:57:38.632Z,90.9
2019-05-13T01:58:40.496Z,91
2019-05-13T01:59:44.078Z,91.2
2019-05-13T02:00:45.951Z,90.7
2019-05-13T02:01:47.817Z,90.7
2019-05-13T02:02:49.410Z,90.8
2019-05-13T02:03:50.980Z,90.8
2019-05-13T02:04:55.410Z,91
2019-05-13T02:05:57.277Z,91.2
2019-05-13T02:06:58.871Z,91.3
2019-05-13T02:08:03.963Z,91.2
2019-05-13T02:09:05.888Z,91.1
2019-05-13T02:10:07.753Z,91.1
2019-05-13T02:11:09.618Z,91.4
2019-05-13T02:12:13.817Z,91.4
2019-05-13T02:13:15.684Z,91.6
2019-05-13T02:14:17.559Z,91.7
2019-05-13T02:15:19.146Z,91.9
2019-05-13T02:16:20.721Z,91.9
2019-05-13T02:17:23.998Z,91.8
2019-05-13T02:18:25.865Z,91.7
2019-05-13T02:19:27.442Z,91.7
2019-05-13T02:20:29.310Z,91.4
2019-05-13T02:21:33.434Z,91.5
2019-05-13T02:22:35.461Z,91.5
2019-05-13T02:23:37.333Z,91.4
2019-05-13T02:24:39.205Z,91.5
2019-05-13T02:25:43.413Z,91.5
2019-05-13T02:26:45.406Z,91.5
2019-05-13T02:27:47.302Z,91.6
2019-05-13T02:28:48.894Z,91.5
2019-05-13T02:29:50.760Z,91.6
2019-05-13T02:30:57.047Z,91.5
2019-05-13T02:32:02.361Z,91.6
2019-05-13T02:33:07.074Z,91.5
2019-05-13T02:34:08.942Z,91.8
2019-05-13T02:35:14.919Z,91.3
2019-05-13T02:36:16.789Z,91.2
2019-05-13T02:37:18.377Z,91.6
2019-05-13T02:38:34.706Z,91.6
2019-05-13T02:39:37.364Z,91.6
2019-05-13T02:40:39.228Z,91.5
2019-05-13T02:41:44.270Z,91.3
2019-05-13T02:42:46.150Z,91.4
2019-05-13T02:43:48.018Z,91.5
2019-05-13T02:44:53.337Z,91.3
2019-05-13T02:45:55.204Z,91.4
2019-05-13T02:46:57.069Z,91.3
2019-05-13T02:47:58.938Z,91.5
2019-05-13T02:49:04.714Z,91.7
2019-05-13T02:50:07.331Z,91.9
2019-05-13T02:51:12.802Z,92
2019-05-13T02:52:14.671Z,92.2
2019-05-13T02:53:16.262Z,92.1
2019-05-13T02:54:18.131Z,92.1
2019-05-13T02:55:22.717Z,92.3
2019-05-13T02:56:24.587Z,92.4
2019-05-13T02:57:26.175Z,92.5
2019-05-13T02:58:28.043Z,92.5
2019-05-13T02:59:33.290Z,92.7
2019-05-13T03:00:35.441Z,92.9
2019-05-13T03:01:37.307Z,93
2019-05-13T03:02:38.896Z,93
2019-05-13T03:03:45.060Z,93.1
2019-05-13T03:04:46.936Z,93.2
2019-05-13T03:05:48.514Z,93.2
2019-05-13T03:06:54.598Z,93.3
2019-05-13T03:07:56.459Z,93.4
2019-05-13T03:08:58.347Z,93.3
2019-05-13T03:10:04.703Z,93.4
2019-05-13T03:11:06.628Z,93.6
2019-05-13T03:12:08.481Z,93.7
2019-05-13T03:13:14.116Z,93.7
2019-05-13T03:14:15.991Z,93.4
2019-05-13T03:15:17.853Z,93.3
2019-05-13T03:16:19.450Z,93.4
2019-05-13T03:17:24.400Z,93.5
2019-05-13T03:18:26.269Z,93.6
2019-05-13T03:19:28.132Z,93.8
2019-05-13T03:20:34.078Z,93.7
2019-05-13T03:21:35.872Z,93.6
2019-05-13T03:22:38.077Z,93.7
2019-05-13T03:23:44.712Z,93.6
2019-05-13T03:24:46.578Z,92.8
2019-05-13T03:25:48.154Z,93
2019-05-13T03:26:53.757Z,93.3
2019-05-13T03:27:55.640Z,92.8
2019-05-13T03:28:57.230Z,92.4
2019-05-13T03:29:58.818Z,92.7
2019-05-13T03:31:08.280Z,93.1
2019-05-13T03:32:17.354Z,93.3
2019-05-13T03:33:28.508Z,93.5
2019-05-13T03:34:37.373Z,93.4
2019-05-13T03:35:46.219Z,93.5
2019-05-13T03:36:48.137Z,93.5
2019-05-13T03:37:53.212Z,93.5
2019-05-13T03:39:10.849Z,93.4
2019-05-13T03:40:17.618Z,93.5
2019-05-13T03:41:23.272Z,93.6
2019-05-13T03:42:25.133Z,93.6
2019-05-13T03:43:26.994Z,93.6
2019-05-13T03:44:32.090Z,93.7
2019-05-13T03:45:34.336Z,93.7
2019-05-13T03:46:35.930Z,93.4
2019-05-13T03:47:37.817Z,93.2
2019-05-13T03:48:43.610Z,93.4
2019-05-13T03:49:45.487Z,93.6
2019-05-13T03:50:47.060Z,93.7
2019-05-13T03:51:48.935Z,93.8
2019-05-13T03:52:54.018Z,93.7
2019-05-13T03:53:55.882Z,93.6
2019-05-13T03:54:57.752Z,93.5
2019-05-13T03:56:02.940Z,93.6
2019-05-13T03:57:04.880Z,93.7
2019-05-13T03:58:06.476Z,93.6
2019-05-13T03:59:08.343Z,93.6
2019-05-13T04:00:13.606Z,93.6
2019-05-13T04:01:15.451Z,93.5
2019-05-13T04:02:17.318Z,93.4
2019-05-13T04:03:22.375Z,93.3
2019-05-13T04:04:24.570Z,93.3
2019-05-13T04:05:26.433Z,93.2
2019-05-13T04:06:28.301Z,93.1
2019-05-13T04:07:33.370Z,93.1
2019-05-13T04:08:35.244Z,93
2019-05-13T04:09:37.153Z,92.9
2019-05-13T04:10:38.469Z,92.9
2019-05-13T04:11:43.383Z,92.9
2019-05-13T04:12:44.957Z,92.9
2019-05-13T04:13:46.830Z,92.9
2019-05-13T04:14:48.705Z,92.4
2019-05-13T04:15:53.482Z,92.8
2019-05-13T04:16:55.061Z,92.8
2019-05-13T04:17:56.927Z,92.7
2019-05-13T04:19:02.214Z,92.7
2019-05-13T04:20:04.304Z,92.7
2019-05-13T04:21:08.441Z,92.4
2019-05-13T04:22:13.857Z,92.7
2019-05-13T04:23:15.722Z,92.7
2019-05-13T04:24:17.590Z,92.7
2019-05-13T04:25:22.783Z,92.8
2019-05-13T04:26:25.112Z,92.7
2019-05-13T04:27:26.976Z,92.7
2019-05-13T04:28:28.565Z,92.8
2019-05-13T04:29:34.066Z,92.9
2019-05-13T04:30:35.641Z,92.8
2019-05-13T04:31:37.516Z,92.8
2019-05-13T04:32:39.392Z,92.8
2019-05-13T04:33:44.717Z,92.8
2019-05-13T04:34:46.595Z,92.9
2019-05-13T04:35:48.464Z,92.9
2019-05-13T04:36:53.813Z,92.8
2019-05-13T04:37:55.675Z,92.8
2019-05-13T04:38:57.548Z,92.7
2019-05-13T04:39:59.409Z,92.9
2019-05-13T04:41:05.161Z,92.8
2019-05-13T04:42:07.031Z,92.8
2019-05-13T04:43:08.895Z,92.9
2019-05-13T04:44:14.302Z,92.8
2019-05-13T04:45:16.178Z,92.8
2019-05-13T04:46:18.031Z,92.8
2019-05-13T04:47:23.638Z,92.9
2019-05-13T04:48:25.229Z,92.9
2019-05-13T04:49:27.096Z,92.9
2019-05-13T04:50:28.964Z,92.9
2019-05-13T04:51:34.300Z,92.7
2019-05-13T04:52:36.188Z,92.9
2019-05-13T04:53:37.755Z,92.9
2019-05-13T04:54:44.258Z,93
2019-05-13T04:55:46.124Z,93.1
2019-05-13T04:56:47.445Z,93
2019-05-13T04:57:52.839Z,93
2019-05-13T04:58:55.049Z,93
2019-05-13T04:59:56.926Z,93
2019-05-13T05:01:09.375Z,93
2019-05-13T05:02:15.415Z,92.9
2019-05-13T05:03:33.472Z,93
2019-05-13T05:04:47.372Z,93
2019-05-13T05:05:52.286Z,92.6
2019-05-13T05:06:54.508Z,92.9
2019-05-13T05:07:56.081Z,92.9
2019-05-13T05:08:57.948Z,93
2019-05-13T05:10:37.685Z,93
2019-05-13T05:11:43.818Z,93
2019-05-13T05:12:45.682Z,93
2019-05-13T05:13:47.554Z,93
2019-05-13T05:14:51.999Z,93
2019-05-13T05:15:54.065Z,93
2019-05-13T05:16:55.938Z,93.1
2019-05-13T05:17:57.806Z,93
2019-05-13T05:19:02.503Z,93.1
2019-05-13T05:20:04.706Z,93.1
2019-05-13T05:21:06.573Z,93.1
2019-05-13T05:22:08.185Z,93.1
2019-05-13T05:23:11.692Z,93
2019-05-13T05:24:13.608Z,93.1
2019-05-13T05:25:15.471Z,93
2019-05-13T05:26:17.334Z,93.1
2019-05-13T05:27:21.790Z,93
2019-05-13T05:28:23.378Z,93
2019-05-13T05:29:25.247Z,92.9
2019-05-13T05:30:27.111Z,92.9
2019-05-13T05:31:28.979Z,93
2019-05-13T05:32:36.440Z,92.9
2019-05-13T05:33:38.310Z,92.9
2019-05-13T05:34:42.537Z,92.9
2019-05-13T05:35:44.401Z,92.7
2019-05-13T05:36:46.268Z,92.6
2019-05-13T05:37:48.136Z,92.5
2019-05-13T05:38:51.943Z,92.5
2019-05-13T05:39:53.811Z,92.3
2019-05-13T05:40:55.677Z,92.5
2019-05-13T05:41:57.552Z,92.5
2019-05-13T05:42:59.415Z,92.6
2019-05-13T05:44:03.723Z,92.4
2019-05-13T05:45:05.304Z,92.4
2019-05-13T05:46:07.165Z,92.5
2019-05-13T05:47:11.660Z,92.6
2019-05-13T05:48:13.247Z,92.6
2019-05-13T05:49:15.112Z,92.6
2019-05-13T05:50:16.980Z,92.5
2019-05-13T05:51:18.844Z,92.7
2019-05-13T05:52:22.954Z,92.6
2019-05-13T05:53:24.822Z,92.4
2019-05-13T05:54:26.690Z,92.6
2019-05-13T05:55:28.556Z,92.5
2019-05-13T05:56:33.062Z,92.7
2019-05-13T05:57:34.928Z,92.7
2019-05-13T05:58:36.801Z,92.4
2019-05-13T05:59:38.665Z,92.4
2019-05-13T06:00:43.434Z,92.6
2019-05-13T06:01:45.316Z,92.6
2019-05-13T06:02:47.168Z,92.7
2019-05-13T06:03:49.032Z,92.7
2019-05-13T06:04:52.886Z,92.9
2019-05-13T06:05:54.479Z,92.7
2019-05-13T06:06:56.344Z,92.4
2019-05-13T06:07:57.922Z,92.5
2019-05-13T06:09:02.302Z,92.6
2019-05-13T06:10:04.165Z,92.2
2019-05-13T06:11:06.029Z,91.9
2019-05-13T06:12:07.898Z,92
2019-05-13T06:13:11.977Z,91.9
2019-05-13T06:14:13.997Z,91.9
2019-05-13T06:15:15.856Z,91.9
2019-05-13T06:16:17.728Z,91.8
2019-05-13T06:17:22.294Z,91.7
2019-05-13T06:18:23.885Z,91.8
2019-05-13T06:19:25.749Z,92.2
2019-05-13T06:20:27.339Z,92.1
2019-05-13T06:21:29.201Z,92.2
2019-05-13T06:22:33.498Z,91.9
2019-05-13T06:23:35.363Z,91.7
2019-05-13T06:24:37.230Z,91.8
2019-05-13T06:25:38.813Z,91.4
2019-05-13T06:26:43.628Z,91.4
2019-05-13T06:27:45.214Z,90.8
2019-05-13T06:28:46.816Z,90.3
2019-05-13T06:29:52.794Z,90.1
2019-05-13T06:30:54.813Z,90.1
2019-05-13T06:31:56.674Z,89.7
2019-05-13T06:33:16.275Z,90.1
2019-05-13T06:34:17.584Z,90.1
2019-05-13T06:35:21.577Z,90.3
2019-05-13T06:36:23.639Z,89.9
2019-05-13T06:37:25.505Z,88.6
2019-05-13T06:38:27.364Z,90.1
2019-05-13T06:39:31.349Z,89.8
2019-05-13T06:40:33.472Z,90.1
2019-05-13T06:41:35.336Z,89.6
2019-05-13T06:42:37.202Z,89.2
2019-05-13T06:43:39.067Z,88.9
2019-05-13T06:44:42.866Z,89.2
2019-05-13T06:45:44.446Z,90.1
2019-05-13T06:46:46.308Z,90.7
2019-05-13T06:47:48.169Z,90.6
2019-05-13T06:48:52.497Z,90.2
2019-05-13T06:49:54.353Z,90.9
2019-05-13T06:50:56.216Z,91
2019-05-13T06:51:58.077Z,90.3
2019-05-13T06:53:02.596Z,89.9
2019-05-13T06:54:04.485Z,88.2
2019-05-13T06:55:06.345Z,88.9
2019-05-13T06:56:07.915Z,87.6
2019-05-13T06:57:13.754Z,86.7
2019-05-13T06:58:15.607Z,88.3
2019-05-13T06:59:17.468Z,87.4
2019-05-13T07:00:21.971Z,86.3
2019-05-13T07:01:23.855Z,86.6
2019-05-13T07:02:25.725Z,86.3
2019-05-13T07:03:27.307Z,87.3
2019-05-13T07:04:28.891Z,86.6
2019-05-13T07:05:32.336Z,86.6
2019-05-13T07:06:34.195Z,85.7
2019-05-13T07:07:36.056Z,84.5
2019-05-13T07:08:37.917Z,84.3
2019-05-13T07:09:42.342Z,86.3
2019-05-13T07:10:44.462Z,85.3
2019-05-13T07:11:46.433Z,86.7
2019-05-13T07:12:48.424Z,85.4
2019-05-13T07:13:52.685Z,84.2
2019-05-13T07:14:54.546Z,84.5
2019-05-13T07:15:56.411Z,85.4
2019-05-13T07:16:58.274Z,86
2019-05-13T07:18:02.998Z,86.2
2019-05-13T07:19:04.858Z,85.9
2019-05-13T07:20:06.429Z,85.8
2019-05-13T07:21:08.300Z,85.4
2019-05-13T07:22:12.150Z,85.9
2019-05-13T07:23:14.026Z,85.6
2019-05-13T07:24:15.876Z,85.9
2019-05-13T07:25:17.745Z,87.4
2019-05-13T07:26:21.870Z,88
2019-05-13T07:27:23.955Z,84.4
2019-05-13T07:28:25.817Z,84.2
2019-05-13T07:29:27.683Z,84.6
2019-05-13T07:30:31.121Z,84.5
2019-05-13T07:31:33.470Z,83.6
2019-05-13T07:32:35.331Z,83.7
2019-05-13T07:33:37.234Z,83.1
2019-05-13T07:34:39.363Z,83.4
2019-05-13T07:35:46.614Z,83
2019-05-13T07:36:48.561Z,83.2
2019-05-13T07:37:52.650Z,81.7
2019-05-13T07:38:54.512Z,82.8
2019-05-13T07:39:56.375Z,84.5
2019-05-13T07:40:58.244Z,83.1
2019-05-13T07:42:06.163Z,82.8
2019-05-13T07:43:07.750Z,80.7
2019-05-13T07:44:12.191Z,80.2
2019-05-13T07:45:14.050Z,78.9
2019-05-13T07:46:15.968Z,80.7
2019-05-13T07:47:17.830Z,82.4
2019-05-13T07:48:27.709Z,81.5
2019-05-13T07:49:32.177Z,80.9
2019-05-13T07:50:34.315Z,82.8
2019-05-13T07:51:36.175Z,81
2019-05-13T07:52:37.760Z,80.7
2019-05-13T07:53:39.623Z,80.8
2019-05-13T07:54:43.867Z,78.2
2019-05-13T07:55:45.454Z,78.6
2019-05-13T07:56:47.315Z,77.7
2019-05-13T07:57:51.282Z,77.2
2019-05-13T07:58:53.035Z,77.2
2019-05-13T07:59:54.898Z,78.7
2019-05-13T08:00:56.761Z,77.5
2019-05-13T08:01:58.660Z,77.1
2019-05-13T08:03:03.944Z,77.2
2019-05-13T08:04:05.818Z,76.9
2019-05-13T08:05:22.964Z,77.8
2019-05-13T08:06:24.826Z,78.8
2019-05-13T08:07:26.689Z,77.5
2019-05-13T08:08:28.550Z,76.7
2019-05-13T08:09:32.577Z,78.3
2019-05-13T08:10:34.447Z,77.8
2019-05-13T08:12:06.186Z,77.5
2019-05-13T08:13:15.809Z,76.1
2019-05-13T08:14:17.670Z,74.5
2019-05-13T08:15:22.074Z,75.2
2019-05-13T08:16:24.147Z,73.7
2019-05-13T08:17:26.013Z,73.9
2019-05-13T08:18:27.871Z,74.7
2019-05-13T08:19:32.114Z,75.2
2019-05-13T08:20:34.353Z,74.6
2019-05-13T08:21:36.216Z,73.4
2019-05-13T08:22:38.077Z,74.4
2019-05-13T08:23:42.212Z,74.4
2019-05-13T08:24:44.068Z,74.1
2019-05-13T08:25:45.932Z,73.9
2019-05-13T08:26:52.935Z,72.7
2019-05-13T08:27:55.008Z,75.3
2019-05-13T08:29:05.702Z,73.7
2019-05-13T08:30:07.810Z,73.1
2019-05-13T08:31:11.925Z,74.2
2019-05-13T08:32:13.859Z,70
2019-05-13T08:33:15.722Z,69.2
2019-05-13T08:34:17.584Z,71.4
2019-05-13T08:35:19.451Z,73.3
2019-05-13T08:36:24.125Z,70.7
2019-05-13T08:37:25.999Z,71.2
2019-05-13T08:38:27.872Z,70.8
2019-05-13T08:39:38.485Z,70.9
2019-05-13T08:40:43.185Z,73.4
2019-05-13T08:41:44.772Z,68.7
2019-05-13T08:42:46.636Z,68.7
2019-05-13T08:43:48.500Z,69.9
2019-05-13T08:44:52.917Z,72.8
2019-05-13T08:45:56.278Z,70.5
2019-05-13T08:46:58.140Z,66.5
2019-05-13T08:48:02.414Z,68.3
2019-05-13T08:49:04.462Z,64.4
2019-05-13T08:50:06.325Z,63.1
2019-05-13T08:51:08.236Z,67
2019-05-13T08:52:13.011Z,65.3
2019-05-13T08:53:14.880Z,60.9
2019-05-13T08:54:16.747Z,63.3
2019-05-13T08:55:21.212Z,64.8
2019-05-13T08:56:23.270Z,65.8
2019-05-13T08:57:25.131Z,63.8
2019-05-13T08:58:26.993Z,65
2019-05-13T08:59:31.448Z,61.5
2019-05-13T09:00:33.507Z,58.6
2019-05-13T09:01:35.369Z,60.7
2019-05-13T09:02:37.233Z,63
2019-05-13T09:03:42.138Z,60
2019-05-13T09:04:43.998Z,60.6
2019-05-13T09:05:45.863Z,59.9
2019-05-13T09:06:47.730Z,60.1
2019-05-13T09:07:51.219Z,62.2
2019-05-13T09:08:55.002Z,60.2
2019-05-13T09:09:56.880Z,61.9
2019-05-13T09:11:01.267Z,61.9
2019-05-13T09:12:04.046Z,62.3
2019-05-13T09:13:05.906Z,62.5
2019-05-13T09:14:07.770Z,62.4
2019-05-13T09:15:12.542Z,61
2019-05-13T09:16:14.403Z,61.2
2019-05-13T09:17:16.266Z,62.4
2019-05-13T09:18:18.130Z,63.4
2019-05-13T09:19:22.086Z,65.2
2019-05-13T09:20:23.949Z,64.9
2019-05-13T09:21:25.808Z,63.9
2019-05-13T09:22:27.669Z,61.5
2019-05-13T09:23:31.875Z,61.2
2019-05-13T09:24:38.217Z,63.2
2019-05-13T09:25:41.746Z,62.3
2019-05-13T09:26:43.331Z,59.4
2019-05-13T09:27:45.269Z,60.5
2019-05-13T09:28:47.133Z,57.1
2019-05-13T09:29:51.524Z,57.2
2019-05-13T09:30:53.862Z,60.4
2019-05-13T09:31:55.724Z,57.7
2019-05-13T09:32:57.590Z,58.2
2019-05-13T09:34:01.833Z,57.7
2019-05-13T09:35:03.758Z,57.5
2019-05-13T09:36:05.621Z,57.8
2019-05-13T09:37:06.923Z,60
2019-05-13T09:38:08.848Z,59.9
2019-05-13T09:39:13.596Z,61.1
2019-05-13T09:40:15.460Z,57.3
2019-05-13T09:41:17.324Z,57.7
2019-05-13T09:42:21.381Z,58.6
2019-05-13T09:43:23.464Z,57.6
2019-05-13T09:44:25.324Z,58.7
2019-05-13T09:45:26.909Z,59.7
2019-05-13T09:46:28.780Z,59.9
2019-05-13T09:47:33.246Z,54.2
2019-05-13T09:48:35.138Z,59
2019-05-13T09:49:37.006Z,58.3
2019-05-13T09:50:38.867Z,55
2019-05-13T09:51:43.385Z,55.4
2019-05-13T09:52:44.988Z,51.8
2019-05-13T09:53:46.854Z,53.2
2019-05-13T09:54:48.724Z,53.1
2019-05-13T09:55:53.175Z,54.8
2019-05-13T09:56:55.038Z,55
2019-05-13T09:57:56.900Z,52.1
2019-05-13T09:58:58.762Z,50.9
2019-05-13T10:00:03.071Z,49.3
2019-05-13T10:01:04.934Z,50.8
2019-05-13T10:02:06.801Z,54.5
2019-05-13T10:03:08.388Z,51.5
2019-05-13T10:04:12.472Z,50.2
2019-05-13T10:05:14.057Z,48.1
2019-05-13T10:06:15.915Z,51.3
2019-05-13T10:07:17.777Z,52.2
2019-05-13T10:08:22.365Z,52.6
2019-05-13T10:09:24.224Z,49.9
2019-05-13T10:10:25.808Z,49.4
2019-05-13T10:11:27.397Z,50
2019-05-13T10:12:32.361Z,48.7
2019-05-13T10:13:34.219Z,48.6
2019-05-13T10:14:36.079Z,48.4
2019-05-13T10:15:37.962Z,49.8
2019-05-13T10:16:43.268Z,49.7
2019-05-13T10:17:45.137Z,50
2019-05-13T10:18:46.998Z,47.4
2019-05-13T10:19:48.861Z,50.7
2019-05-13T10:20:59.097Z,49.3
2019-05-13T10:22:01.005Z,50.3
2019-05-13T10:23:02.877Z,48.3
2019-05-13T10:24:04.907Z,50.1
2019-05-13T10:25:06.878Z,51.4
2019-05-13T10:26:08.984Z,48.7
2019-05-13T10:27:22.096Z,49.4
2019-05-13T10:28:24.127Z,49.6
2019-05-13T10:29:25.990Z,53
2019-05-13T10:30:27.854Z,51.3
2019-05-13T10:31:32.068Z,48.4
2019-05-13T10:32:33.927Z,50.3
2019-05-13T10:33:35.794Z,49.8
2019-05-13T10:34:37.658Z,50.4
2019-05-13T10:35:39.527Z,50
2019-05-13T10:36:44.377Z,46.1
2019-05-13T10:37:46.240Z,43.4
2019-05-13T10:38:48.483Z,46.9
2019-05-13T10:39:52.319Z,47.7
2019-05-13T10:40:54.181Z,46.9
2019-05-13T10:41:56.052Z,47
2019-05-13T10:42:57.914Z,46.2
2019-05-13T10:44:03.613Z,45
2019-05-13T10:45:05.476Z,47.9
2019-05-13T10:46:07.060Z,48.4
2019-05-13T10:47:11.860Z,47.3
2019-05-13T10:48:14.257Z,47.7
2019-05-13T10:49:16.119Z,47.1
2019-05-13T10:50:18.358Z,48.7
2019-05-13T10:51:28.629Z,45.7
2019-05-13T10:52:33.489Z,41.6
2019-05-13T10:53:35.350Z,39.5
2019-05-13T10:54:36.937Z,40.5
2019-05-13T10:55:38.801Z,36.8
2019-05-13T10:56:43.691Z,40
2019-05-13T10:57:45.584Z,36
2019-05-13T10:58:47.438Z,35.5
2019-05-13T10:59:51.381Z,40.2
2019-05-13T11:00:54.511Z,39.3
2019-05-13T11:01:56.374Z,37.3
2019-05-13T11:02:58.617Z,40.2
2019-05-13T11:04:03.163Z,39
2019-05-13T11:05:05.024Z,38
2019-05-13T11:06:06.885Z,36.3
2019-05-13T11:07:08.767Z,41.3
2019-05-13T11:08:13.291Z,39.4
2019-05-13T11:09:15.148Z,40.7
2019-05-13T11:10:17.011Z,38
2019-05-13T11:11:21.271Z,40.1
2019-05-13T11:12:28.876Z,40.1
2019-05-13T11:13:56.164Z,42.9
2019-05-13T11:17:02.156Z,39.8
2019-05-13T11:18:04.313Z,35.5
2019-05-13T11:19:06.720Z,36.9
2019-05-13T11:20:08.294Z,36.2
2019-05-13T11:21:13.319Z,38.8
2019-05-13T11:22:15.165Z,39.7
2019-05-13T11:23:17.027Z,37.2
2019-05-13T11:24:18.891Z,37.2
2019-05-13T11:25:23.448Z,35.4
2019-05-13T11:26:25.310Z,40.6
2019-05-13T11:27:26.899Z,36.2
2019-05-13T11:28:28.923Z,37
2019-05-13T11:29:33.383Z,39.2
2019-05-13T11:30:35.416Z,34.6
2019-05-13T11:31:37.280Z,37.2
2019-05-13T11:32:42.331Z,33.5
2019-05-13T11:33:44.495Z,34.6
2019-05-13T11:34:46.372Z,33.2
2019-05-13T11:35:48.235Z,33.7
2019-05-13T11:36:53.739Z,36.4
2019-05-13T11:37:55.630Z,39.1
2019-05-13T11:38:57.493Z,36.1
2019-05-13T11:40:00.005Z,34.9
2019-05-13T11:41:04.888Z,34.9
2019-05-13T11:42:06.753Z,33.9
2019-05-13T11:43:08.338Z,33.8
2019-05-13T11:44:17.383Z,37.1
2019-05-13T11:45:18.989Z,37.9
2019-05-13T11:46:23.602Z,37.2
2019-05-13T11:47:25.465Z,35.9
2019-05-13T11:48:26.775Z,34.8
2019-05-13T11:49:28.635Z,37.1
2019-05-13T11:50:32.953Z,35.4
2019-05-13T11:51:34.872Z,33.8
2019-05-13T11:52:37.304Z,34.3
2019-05-13T11:53:41.107Z,35.9
2019-05-13T11:54:43.490Z,35.8
2019-05-13T11:55:45.350Z,37.9
2019-05-13T11:57:01.457Z,34.6
2019-05-13T11:58:07.654Z,34.9
2019-05-13T11:59:09.258Z,38.8
2019-05-13T12:00:15.255Z,36.3
2019-05-13T12:01:16.560Z,35.9
2019-05-13T12:02:18.420Z,37.8
2019-05-13T12:03:24.543Z,34.6
2019-05-13T12:04:25.825Z,38.3
2019-05-13T12:05:27.516Z,37.1
2019-05-13T12:06:30.064Z,37.4
2019-05-13T12:07:36.133Z,37.3
2019-05-13T12:08:38.251Z,37.6
2019-05-13T12:09:40.114Z,37.7
2019-05-13T12:10:44.536Z,37.7
2019-05-13T12:11:46.410Z,40.6
2019-05-13T12:12:48.274Z,39.2
2019-05-13T12:13:53.425Z,37.7
2019-05-13T12:15:38.733Z,39.2
2019-05-13T12:16:54.895Z,36.8
2019-05-13T12:17:56.917Z,41.7
2019-05-13T12:19:03.086Z,37.3
2019-05-13T12:20:05.373Z,39.9
2019-05-13T12:21:07.234Z,40.6
2019-05-13T12:22:09.092Z,39.1
2019-05-13T12:23:14.563Z,38.3
2019-05-13T12:24:16.433Z,37
2019-05-13T12:25:18.308Z,36.4
2019-05-13T12:26:24.375Z,35.6
2019-05-13T12:27:25.982Z,37.6
2019-05-13T12:28:27.855Z,36.4
2019-05-13T12:29:29.891Z,40.2
2019-05-13T12:30:34.526Z,40.1
2019-05-13T12:31:37.116Z,39
2019-05-13T12:32:38.977Z,37.1
2019-05-13T12:33:44.720Z,39.6
2019-05-13T12:34:46.688Z,38.2
2019-05-13T12:35:48.553Z,39.8
2019-05-13T12:36:54.979Z,39.7
2019-05-13T12:37:56.852Z,40.8
2019-05-13T12:38:58.450Z,41
2019-05-13T12:40:03.657Z,43
2019-05-13T12:41:06.197Z,40.4
2019-05-13T12:42:08.138Z,40
2019-05-13T12:43:13.877Z,37.5
2019-05-13T12:44:16.361Z,38.8
2019-05-13T12:45:18.249Z,41
2019-05-13T12:46:25.288Z,41.1
2019-05-13T12:47:26.878Z,39.2
2019-05-13T12:48:28.758Z,35.5
2019-05-13T12:49:36.721Z,35.5
2019-05-13T12:50:38.724Z,34.8
2019-05-13T12:51:44.665Z,34.2
2019-05-13T12:52:46.531Z,37.5
2019-05-13T12:53:48.396Z,39.5
2019-05-13T12:54:53.734Z,35.9
2019-05-13T12:55:57.740Z,36.8
2019-05-13T12:57:10.972Z,33.5
2019-05-13T12:58:17.463Z,34.2
2019-05-13T12:59:19.766Z,34.8
2019-05-13T13:00:24.358Z,35
2019-05-13T13:01:26.248Z,34.8
2019-05-13T13:02:28.152Z,39.1
2019-05-13T13:03:33.183Z,35.1
2019-05-13T13:04:35.269Z,33
2019-05-13T13:05:37.650Z,32.5
2019-05-13T13:06:45.615Z,33
2019-05-13T13:08:38.147Z,33.8
2019-05-13T13:09:54.294Z,34.7
2019-05-13T13:10:56.184Z,32
2019-05-13T13:11:57.700Z,34.3
2019-05-13T13:13:02.491Z,35.2
2019-05-13T13:14:11.216Z,34.7
2019-05-13T13:15:42.191Z,33.2
2019-05-13T13:16:54.446Z,33.4
2019-05-13T13:17:56.292Z,34.9
2019-05-13T13:18:58.160Z,34.1
2019-05-13T13:20:13.645Z,32.7
2019-05-13T13:21:16.849Z,32.3
2019-05-13T13:22:18.933Z,33.9
2019-05-13T13:23:26.867Z,31.3
2019-05-13T13:24:32.175Z,32.2
2019-05-13T13:25:34.485Z,36.2
2019-05-13T13:26:36.346Z,37.7
2019-05-13T13:28:11.989Z,36.6
2019-05-13T13:29:17.160Z,36.3
2019-05-13T13:30:19.338Z,33.2
2019-05-13T13:31:25.844Z,34.2
2019-05-13T13:32:27.702Z,29.4
2019-05-13T13:33:33.920Z,30.6
2019-05-13T13:34:36.168Z,30.1
2019-05-13T13:35:38.036Z,32.1
2019-05-13T13:38:46.722Z,32
2019-05-13T13:39:48.638Z,35.4
2019-05-13T13:40:56.356Z,30.2
2019-05-13T13:41:58.219Z,31.2
2019-05-13T13:43:05.682Z,34.8
2019-05-13T13:44:07.837Z,32.1
2019-05-13T13:45:13.427Z,32.1
2019-05-13T13:46:42.106Z,29.2
2019-05-13T13:48:04.379Z,28.4
2019-05-13T13:49:06.487Z,27.8
2019-05-13T13:50:08.077Z,29.1
2019-05-13T13:51:14.824Z,30.2
2019-05-13T13:52:16.938Z,33
2019-05-13T13:53:19.006Z,32
2019-05-13T13:54:27.493Z,29
2019-05-13T13:55:32.803Z,28.9
2019-05-13T13:56:35.274Z,29
2019-05-13T13:57:36.860Z,29.1
2019-05-13T13:58:38.729Z,32.9
2019-05-13T14:00:34.163Z,31.3
2019-05-13T14:02:14.058Z,31.7
2019-05-13T14:03:15.707Z,29.6
2019-05-13T14:04:17.571Z,30.6
2019-05-13T14:05:19.159Z,31.5
2019-05-13T14:07:38.625Z,29.8
2019-05-13T14:08:43.528Z,29.3
2019-05-13T14:09:45.493Z,30.8
2019-05-13T14:10:47.069Z,30.6
2019-05-13T14:11:51.301Z,31.6
2019-05-13T14:12:53.402Z,31.6
2019-05-13T14:13:55.267Z,29.9
2019-05-13T14:14:57.131Z,32.3
2019-05-13T14:16:01.579Z,31.3